sensor_id;sensor_type;location;lat;lon;timestamp;pressure;altitude;pressure_sealevel;temperature;humidity
65754;BME280;52488;47.502;18.940;2022-11-20T00:00:04;97683.00;;;0.69;84.44
65754;BME280;52488;47.502;18.940;2022-11-20T00:01:11;97686.22;;;0.68;84.36
65754;BME280;52488;47.502;18.940;2022-11-20T00:02:15;97682.81;;;0.54;84.77
65754;BME280;52488;47.502;18.940;2022-11-20T00:03:17;97684.50;;;0.44;85.38
65754;BME280;52488;47.502;18.940;2022-11-20T00:04:20;97675.78;;;0.38;85.91
65754;BME280;52488;47.502;18.940;2022-11-20T00:05:23;97673.50;;;0.42;86.20
65754;BME280;52488;47.502;18.940;2022-11-20T00:06:27;97673.44;;;0.55;85.68
65754;BME280;52488;47.502;18.940;2022-11-20T00:07:30;97667.25;;;0.47;85.83
65754;BME280;52488;47.502;18.940;2022-11-20T00:08:33;97678.06;;;0.47;85.96
65754;BME280;52488;47.502;18.940;2022-11-20T00:09:36;97671.00;;;0.44;86.43
65754;BME280;52488;47.502;18.940;2022-11-20T00:10:39;97673.31;;;0.40;87.02
65754;BME280;52488;47.502;18.940;2022-11-20T00:11:42;97675.28;;;0.39;87.21
65754;BME280;52488;47.502;18.940;2022-11-20T00:12:45;97680.16;;;0.41;87.30
65754;BME280;52488;47.502;18.940;2022-11-20T00:13:51;97682.34;;;0.42;86.79
65754;BME280;52488;47.502;18.940;2022-11-20T00:14:54;97679.94;;;0.39;86.75
65754;BME280;52488;47.502;18.940;2022-11-20T00:15:58;97680.16;;;0.41;86.57
65754;BME280;52488;47.502;18.940;2022-11-20T00:17:01;97679.44;;;0.40;86.76
65754;BME280;52488;47.502;18.940;2022-11-20T00:18:03;97682.84;;;0.41;86.93
65754;BME280;52488;47.502;18.940;2022-11-20T00:19:06;97682.53;;;0.44;86.68
65754;BME280;52488;47.502;18.940;2022-11-20T00:20:10;97676.41;;;0.44;86.46
65754;BME280;52488;47.502;18.940;2022-11-20T00:21:24;97674.03;;;0.40;86.53
65754;BME280;52488;47.502;18.940;2022-11-20T00:22:27;97671.09;;;0.38;86.80
65754;BME280;52488;47.502;18.940;2022-11-20T00:23:30;97680.22;;;0.48;86.50
65754;BME280;52488;47.502;18.940;2022-11-20T00:24:33;97680.66;;;0.52;85.82
65754;BME280;52488;47.502;18.940;2022-11-20T00:25:42;97686.38;;;0.49;86.04
65754;BME280;52488;47.502;18.940;2022-11-20T00:26:45;97685.63;;;0.48;85.96
65754;BME280;52488;47.502;18.940;2022-11-20T00:27:48;97684.72;;;0.46;86.20
65754;BME280;52488;47.502;18.940;2022-11-20T00:28:58;97683.06;;;0.43;86.51
65754;BME280;52488;47.502;18.940;2022-11-20T00:30:01;97677.34;;;0.46;85.99
65754;BME280;52488;47.502;18.940;2022-11-20T00:31:07;97666.19;;;0.50;85.16
65754;BME280;52488;47.502;18.940;2022-11-20T00:32:10;97659.16;;;0.47;85.45
65754;BME280;52488;47.502;18.940;2022-11-20T00:33:12;97670.38;;;0.51;85.41
65754;BME280;52488;47.502;18.940;2022-11-20T00:34:15;97664.25;;;0.50;85.33
65754;BME280;52488;47.502;18.940;2022-11-20T00:35:18;97676.16;;;0.55;84.53
65754;BME280;52488;47.502;18.940;2022-11-20T00:36:23;97672.66;;;0.47;84.58
65754;BME280;52488;47.502;18.940;2022-11-20T00:37:26;97686.69;;;0.45;84.81
65754;BME280;52488;47.502;18.940;2022-11-20T00:38:28;97678.97;;;0.49;84.87
65754;BME280;52488;47.502;18.940;2022-11-20T00:39:31;97686.69;;;0.45;85.44
65754;BME280;52488;47.502;18.940;2022-11-20T00:40:38;97689.41;;;0.45;85.72
65754;BME280;52488;47.502;18.940;2022-11-20T00:41:41;97699.69;;;0.47;85.72
65754;BME280;52488;47.502;18.940;2022-11-20T00:42:43;97705.50;;;0.51;85.63
65754;BME280;52488;47.502;18.940;2022-11-20T00:43:46;97709.44;;;0.50;85.69
65754;BME280;52488;47.502;18.940;2022-11-20T00:44:48;97701.97;;;0.56;85.68
65754;BME280;52488;47.502;18.940;2022-11-20T00:46:15;97700.06;;;0.64;84.85
65754;BME280;52488;47.502;18.940;2022-11-20T00:47:18;97703.28;;;0.63;83.69
65754;BME280;52488;47.502;18.940;2022-11-20T00:48:20;97697.34;;;0.64;83.61
65754;BME280;52488;47.502;18.940;2022-11-20T00:49:23;97688.81;;;0.73;82.91
65754;BME280;52488;47.502;18.940;2022-11-20T00:50:26;97691.28;;;0.71;82.66
65754;BME280;52488;47.502;18.940;2022-11-20T00:51:28;97688.59;;;0.71;82.67
65754;BME280;52488;47.502;18.940;2022-11-20T00:52:31;97676.94;;;0.76;82.29
65754;BME280;52488;47.502;18.940;2022-11-20T00:53:34;97676.31;;;0.70;82.27
65754;BME280;52488;47.502;18.940;2022-11-20T00:54:36;97681.12;;;0.64;82.59
65754;BME280;52488;47.502;18.940;2022-11-20T00:55:39;97675.19;;;0.66;82.29
65754;BME280;52488;47.502;18.940;2022-11-20T00:56:42;97675.41;;;0.68;81.92
65754;BME280;52488;47.502;18.940;2022-11-20T00:57:44;97675.78;;;0.72;82.34
65754;BME280;52488;47.502;18.940;2022-11-20T00:58:48;97676.97;;;0.63;83.05
65754;BME280;52488;47.502;18.940;2022-11-20T00:59:51;97676.13;;;0.68;82.34
65754;BME280;52488;47.502;18.940;2022-11-20T01:01:00;97675.78;;;0.72;82.25
65754;BME280;52488;47.502;18.940;2022-11-20T01:02:03;97679.44;;;0.74;81.27
65754;BME280;52488;47.502;18.940;2022-11-20T01:03:06;97678.00;;;0.60;82.19
65754;BME280;52488;47.502;18.940;2022-11-20T01:04:08;97679.81;;;0.58;82.52
65754;BME280;52488;47.502;18.940;2022-11-20T01:05:11;97681.56;;;0.55;82.71
65754;BME280;52488;47.502;18.940;2022-11-20T01:06:23;97675.97;;;0.53;82.79
65754;BME280;52488;47.502;18.940;2022-11-20T01:07:26;97688.34;;;0.48;83.31
65754;BME280;52488;47.502;18.940;2022-11-20T01:08:30;97686.53;;;0.64;82.39
65754;BME280;52488;47.502;18.940;2022-11-20T01:09:34;97674.34;;;0.71;81.22
65754;BME280;52488;47.502;18.940;2022-11-20T01:10:36;97681.00;;;0.70;81.03
65754;BME280;52488;47.502;18.940;2022-11-20T01:11:43;97681.12;;;0.64;81.38
65754;BME280;52488;47.502;18.940;2022-11-20T01:12:46;97691.34;;;0.58;81.75
65754;BME280;52488;47.502;18.940;2022-11-20T01:14:12;97688.34;;;0.48;82.46
65754;BME280;52488;47.502;18.940;2022-11-20T01:15:15;97702.91;;;0.45;82.77
65754;BME280;52488;47.502;18.940;2022-11-20T01:16:21;97691.37;;;0.45;82.94
65754;BME280;52488;47.502;18.940;2022-11-20T01:17:24;97689.53;;;0.40;83.35
65754;BME280;52488;47.502;18.940;2022-11-20T01:18:27;97695.12;;;0.42;83.53
65754;BME280;52488;47.502;18.940;2022-11-20T01:19:30;97687.44;;;0.46;83.13
65754;BME280;52488;47.502;18.940;2022-11-20T01:20:36;97684.50;;;0.44;82.99
65754;BME280;52488;47.502;18.940;2022-11-20T01:21:41;97683.37;;;0.39;83.57
65754;BME280;52488;47.502;18.940;2022-11-20T01:22:44;97684.31;;;0.42;83.46
65754;BME280;52488;47.502;18.940;2022-11-20T01:23:48;97688.94;;;0.55;82.60
65754;BME280;52488;47.502;18.940;2022-11-20T01:24:51;97687.25;;;0.65;81.93
65754;BME280;52488;47.502;18.940;2022-11-20T01:25:53;97683.09;;;0.64;81.53
65754;BME280;52488;47.502;18.940;2022-11-20T01:26:56;97703.00;;;0.53;82.18
65754;BME280;52488;47.502;18.940;2022-11-20T01:27:59;97699.44;;;0.58;82.10
65754;BME280;52488;47.502;18.940;2022-11-20T01:29:02;97700.81;;;0.51;82.16
65754;BME280;52488;47.502;18.940;2022-11-20T01:30:06;97694.59;;;0.43;82.91
65754;BME280;52488;47.502;18.940;2022-11-20T01:31:19;97701.97;;;0.43;83.11
65754;BME280;52488;47.502;18.940;2022-11-20T01:32:21;97700.84;;;0.38;83.78
65754;BME280;52488;47.502;18.940;2022-11-20T01:33:24;97701.34;;;0.37;84.42
65754;BME280;52488;47.502;18.940;2022-11-20T01:34:28;97698.84;;;0.39;84.48
65754;BME280;52488;47.502;18.940;2022-11-20T01:35:30;97700.09;;;0.38;84.44
65754;BME280;52488;47.502;18.940;2022-11-20T01:36:35;97691.81;;;0.36;84.95
65754;BME280;52488;47.502;18.940;2022-11-20T01:37:38;97690.25;;;0.40;85.11
65754;BME280;52488;47.502;18.940;2022-11-20T01:38:41;97688.03;;;0.39;85.39
65754;BME280;52488;47.502;18.940;2022-11-20T01:39:44;97678.47;;;0.51;85.37
65754;BME280;52488;47.502;18.940;2022-11-20T01:40:54;97683.03;;;0.56;84.42
65754;BME280;52488;47.502;18.940;2022-11-20T01:41:56;97682.94;;;0.48;84.75
65754;BME280;52488;47.502;18.940;2022-11-20T01:43:19;97678.25;;;0.49;84.86
65754;BME280;52488;47.502;18.940;2022-11-20T01:47:02;97673.69;;;0.44;85.74
65754;BME280;52488;47.502;18.940;2022-11-20T01:48:07;97679.81;;;0.44;86.13
65754;BME280;52488;47.502;18.940;2022-11-20T01:49:20;97679.09;;;0.44;86.42
65754;BME280;52488;47.502;18.940;2022-11-20T01:50:28;97673.69;;;0.44;86.60
65754;BME280;52488;47.502;18.940;2022-11-20T01:53:04;97669.66;;;0.50;86.65
65754;BME280;52488;47.502;18.940;2022-11-20T01:54:18;97666.41;;;0.52;86.72
65754;BME280;52488;47.502;18.940;2022-11-20T01:55:26;97656.84;;;0.51;87.13
65754;BME280;52488;47.502;18.940;2022-11-20T01:56:34;97656.31;;;0.52;87.51
65754;BME280;52488;47.502;18.940;2022-11-20T01:57:39;97655.59;;;0.52;87.96
65754;BME280;52488;47.502;18.940;2022-11-20T01:58:48;97652.91;;;0.52;88.29
65754;BME280;52488;47.502;18.940;2022-11-20T01:59:58;97656.19;;;0.58;88.06
65754;BME280;52488;47.502;18.940;2022-11-20T02:01:03;97653.31;;;0.56;88.18
65754;BME280;52488;47.502;18.940;2022-11-20T02:02:06;97650.38;;;0.54;88.41
65754;BME280;52488;47.502;18.940;2022-11-20T02:03:12;97650.19;;;0.52;88.58
65754;BME280;52488;47.502;18.940;2022-11-20T02:04:16;97661.00;;;0.52;88.85
65754;BME280;52488;47.502;18.940;2022-11-20T02:06:44;97666.09;;;0.56;89.09
65754;BME280;52488;47.502;18.940;2022-11-20T02:07:48;97670.97;;;0.57;88.97
65754;BME280;52488;47.502;18.940;2022-11-20T02:08:51;97673.44;;;0.55;89.16
65754;BME280;52488;47.502;18.940;2022-11-20T02:09:54;97673.44;;;0.55;89.25
65754;BME280;52488;47.502;18.940;2022-11-20T02:11:00;97680.34;;;0.56;89.41
65754;BME280;52488;47.502;18.940;2022-11-20T02:12:03;97674.94;;;0.56;89.70
65754;BME280;52488;47.502;18.940;2022-11-20T02:13:06;97675.66;;;0.57;89.80
65754;BME280;52488;47.502;18.940;2022-11-20T02:14:28;97674.94;;;0.56;89.97
65754;BME280;52488;47.502;18.940;2022-11-20T02:15:32;97679.81;;;0.58;90.13
65754;BME280;52488;47.502;18.940;2022-11-20T02:16:46;97677.28;;;0.60;90.18
65754;BME280;52488;47.502;18.940;2022-11-20T02:17:50;97676.78;;;0.61;90.35
65754;BME280;52488;47.502;18.940;2022-11-20T02:18:54;97681.44;;;0.61;90.42
65754;BME280;52488;47.502;18.940;2022-11-20T02:19:57;97675.31;;;0.60;90.48
65754;BME280;52488;47.502;18.940;2022-11-20T02:22:59;97678.22;;;0.62;90.88
65754;BME280;52488;47.502;18.940;2022-11-20T02:24:12;97683.63;;;0.62;91.15
65754;BME280;52488;47.502;18.940;2022-11-20T02:25:20;97679.69;;;0.63;91.10
65754;BME280;52488;47.502;18.940;2022-11-20T02:26:24;97685.09;;;0.63;91.04
65754;BME280;52488;47.502;18.940;2022-11-20T02:27:29;97693.19;;;0.63;91.09
65754;BME280;52488;47.502;18.940;2022-11-20T02:28:32;97687.06;;;0.63;91.17
65754;BME280;52488;47.502;18.940;2022-11-20T02:31:10;97679.50;;;0.61;91.33
65754;BME280;52488;47.502;18.940;2022-11-20T02:32:24;97674.28;;;0.63;91.12
65754;BME280;52488;47.502;18.940;2022-11-20T02:33:27;97659.81;;;0.61;90.90
65754;BME280;52488;47.502;18.940;2022-11-20T02:34:31;97661.59;;;0.58;90.95
65754;BME280;52488;47.502;18.940;2022-11-20T02:36:39;97654.81;;;0.65;91.13
65754;BME280;52488;47.502;18.940;2022-11-20T02:37:43;97650.12;;;0.65;90.92
65754;BME280;52488;47.502;18.940;2022-11-20T02:38:48;97642.38;;;0.62;90.71
65754;BME280;52488;47.502;18.940;2022-11-20T02:39:52;97648.38;;;0.68;90.62
65754;BME280;52488;47.502;18.940;2022-11-20T02:40:54;97645.44;;;0.66;90.61
65754;BME280;52488;47.502;18.940;2022-11-20T02:41:57;97658.78;;;0.64;90.61
65754;BME280;52488;47.502;18.940;2022-11-20T02:43:00;97661.78;;;0.60;90.83
65754;BME280;52488;47.502;18.940;2022-11-20T02:44:03;97655.66;;;0.60;91.05
65754;BME280;52488;47.502;18.940;2022-11-20T02:45:07;97651.94;;;0.63;91.13
65754;BME280;52488;47.502;18.940;2022-11-20T02:46:10;97647.97;;;0.64;91.19
65754;BME280;52488;47.502;18.940;2022-11-20T02:47:13;97649.62;;;0.67;91.10
65754;BME280;52488;47.502;18.940;2022-11-20T02:48:16;97646.94;;;0.67;91.04
65754;BME280;52488;47.502;18.940;2022-11-20T02:49:22;97642.25;;;0.67;91.11
65754;BME280;52488;47.502;18.940;2022-11-20T02:50:25;97647.13;;;0.69;91.06
65754;BME280;52488;47.502;18.940;2022-11-20T02:51:28;97650.34;;;0.67;91.17
65754;BME280;52488;47.502;18.940;2022-11-20T02:52:31;97650.34;;;0.67;91.30
65754;BME280;52488;47.502;18.940;2022-11-20T02:53:33;97657.00;;;0.66;91.34
65754;BME280;52488;47.502;18.940;2022-11-20T02:54:36;97664.91;;;0.64;91.54
65754;BME280;52488;47.502;18.940;2022-11-20T02:55:39;97659.78;;;0.74;91.43
65754;BME280;52488;47.502;18.940;2022-11-20T02:56:42;97659.84;;;0.82;90.94
65754;BME280;52488;47.502;18.940;2022-11-20T02:57:45;97666.09;;;0.76;90.44
65754;BME280;52488;47.502;18.940;2022-11-20T02:58:48;97663.88;;;0.67;90.79
65754;BME280;52488;47.502;18.940;2022-11-20T02:59:51;97668.22;;;0.70;91.03
65754;BME280;52488;47.502;18.940;2022-11-20T03:00:53;97653.78;;;0.68;91.14
65754;BME280;52488;47.502;18.940;2022-11-20T03:01:56;97652.53;;;0.69;91.22
65754;BME280;52488;47.502;18.940;2022-11-20T03:02:59;97654.69;;;0.70;91.31
65754;BME280;52488;47.502;18.940;2022-11-20T03:04:02;97647.13;;;0.69;91.37
65754;BME280;52488;47.502;18.940;2022-11-20T03:05:04;97650.53;;;0.69;91.28
65754;BME280;52488;47.502;18.940;2022-11-20T03:06:07;97636.31;;;0.69;91.14
65754;BME280;52488;47.502;18.940;2022-11-20T03:07:10;97644.00;;;0.65;91.26
65754;BME280;52488;47.502;18.940;2022-11-20T03:08:13;97636.44;;;0.63;91.44
65754;BME280;52488;47.502;18.940;2022-11-20T03:09:16;97638.41;;;0.63;91.62
65754;BME280;52488;47.502;18.940;2022-11-20T03:10:19;97644.53;;;0.63;91.67
65754;BME280;52488;47.502;18.940;2022-11-20T03:11:22;97643.69;;;0.68;91.69
65754;BME280;52488;47.502;18.940;2022-11-20T03:12:24;97636.63;;;0.65;91.77
65754;BME280;52488;47.502;18.940;2022-11-20T03:13:27;97645.44;;;0.66;91.99
65754;BME280;52488;47.502;18.940;2022-11-20T03:14:30;97649.28;;;0.70;91.94
65754;BME280;52488;47.502;18.940;2022-11-20T03:15:32;97654.16;;;0.72;91.83
65754;BME280;52488;47.502;18.940;2022-11-20T03:16:35;97646.41;;;0.68;91.73
65754;BME280;52488;47.502;18.940;2022-11-20T03:17:37;97642.97;;;0.68;91.89
65754;BME280;52488;47.502;18.940;2022-11-20T03:18:41;97643.69;;;0.68;91.94
65754;BME280;52488;47.502;18.940;2022-11-20T03:19:44;97638.28;;;0.68;92.22
65754;BME280;52488;47.502;18.940;2022-11-20T03:20:47;97639.72;;;0.69;92.27
65754;BME280;52488;47.502;18.940;2022-11-20T03:21:50;97645.13;;;0.69;92.48
65754;BME280;52488;47.502;18.940;2022-11-20T03:22:53;97654.69;;;0.70;92.60
65754;BME280;52488;47.502;18.940;2022-11-20T03:23:56;97654.69;;;0.70;92.67
65754;BME280;52488;47.502;18.940;2022-11-20T03:24:58;97660.09;;;0.70;92.58
65754;BME280;52488;47.502;18.940;2022-11-20T03:26:16;97661.53;;;0.71;92.44
65754;BME280;52488;47.502;18.940;2022-11-20T03:27:19;97668.22;;;0.70;92.52
65754;BME280;52488;47.502;18.940;2022-11-20T03:28:26;97669.66;;;0.71;92.56
65754;BME280;52488;47.502;18.940;2022-11-20T03:29:28;97672.91;;;0.70;92.46
65754;BME280;52488;47.502;18.940;2022-11-20T03:30:35;97675.06;;;0.71;92.36
65754;BME280;52488;47.502;18.940;2022-11-20T03:31:39;97685.38;;;0.73;92.32
65754;BME280;52488;47.502;18.940;2022-11-20T03:32:45;97676.00;;;0.74;92.36
65754;BME280;52488;47.502;18.940;2022-11-20T03:33:48;97674.75;;;0.75;92.20
65754;BME280;52488;47.502;18.940;2022-11-20T03:34:51;97674.03;;;0.74;92.12
65754;BME280;52488;47.502;18.940;2022-11-20T03:35:53;97663.22;;;0.74;92.16
65754;BME280;52488;47.502;18.940;2022-11-20T03:36:56;97657.28;;;0.76;92.12
65754;BME280;52488;47.502;18.940;2022-11-20T03:37:58;97661.22;;;0.75;91.92
65754;BME280;52488;47.502;18.940;2022-11-20T03:39:01;97657.81;;;0.74;91.81
65754;BME280;52488;47.502;18.940;2022-11-20T03:40:05;97657.09;;;0.74;91.85
65754;BME280;52488;47.502;18.940;2022-11-20T03:41:17;97657.28;;;0.76;91.87
65754;BME280;52488;47.502;18.940;2022-11-20T03:42:20;97653.13;;;0.75;92.00
65754;BME280;52488;47.502;18.940;2022-11-20T03:43:41;97655.50;;;0.78;92.13
65754;BME280;52488;47.502;18.940;2022-11-20T03:44:44;97655.50;;;0.78;92.17
65754;BME280;52488;47.502;18.940;2022-11-20T03:45:47;97661.09;;;0.81;92.17
65754;BME280;52488;47.502;18.940;2022-11-20T03:46:49;97656.97;;;0.79;92.16
65754;BME280;52488;47.502;18.940;2022-11-20T03:47:52;97658.41;;;0.81;92.20
65754;BME280;52488;47.502;18.940;2022-11-20T03:48:55;97662.56;;;0.82;92.28
65754;BME280;52488;47.502;18.940;2022-11-20T03:49:58;97659.13;;;0.81;92.22
65754;BME280;52488;47.502;18.940;2022-11-20T03:51:09;97656.62;;;0.83;92.19
65754;BME280;52488;47.502;18.940;2022-11-20T03:52:16;97655.38;;;0.84;92.30
65754;BME280;52488;47.502;18.940;2022-11-20T03:53:19;97662.03;;;0.83;92.30
65754;BME280;52488;47.502;18.940;2022-11-20T03:54:22;97662.56;;;0.82;92.44
65754;BME280;52488;47.502;18.940;2022-11-20T03:55:25;97662.56;;;0.82;92.76
65754;BME280;52488;47.502;18.940;2022-11-20T03:56:31;97662.56;;;0.82;92.87
65754;BME280;52488;47.502;18.940;2022-11-20T03:57:35;97664.00;;;0.83;92.91
65754;BME280;52488;47.502;18.940;2022-11-20T03:58:40;97665.47;;;0.84;92.90
65754;BME280;52488;47.502;18.940;2022-11-20T03:59:43;97665.47;;;0.84;93.02
65754;BME280;52488;47.502;18.940;2022-11-20T04:00:45;97671.59;;;0.84;93.10
65754;BME280;52488;47.502;18.940;2022-11-20T04:01:48;97669.63;;;0.85;93.10
65754;BME280;52488;47.502;18.940;2022-11-20T04:02:51;97664.22;;;0.85;93.11
65754;BME280;52488;47.502;18.940;2022-11-20T04:03:55;97659.00;;;0.87;93.14
65754;BME280;52488;47.502;18.940;2022-11-20T04:04:58;97660.66;;;0.90;92.93
65754;BME280;52488;47.502;18.940;2022-11-20T04:06:03;97657.41;;;0.91;92.71
65754;BME280;52488;47.502;18.940;2022-11-20T04:07:06;97653.66;;;0.94;92.53
65754;BME280;52488;47.502;18.940;2022-11-20T04:08:09;97659.59;;;0.93;92.38
65754;BME280;52488;47.502;18.940;2022-11-20T04:09:12;97647.66;;;0.88;92.33
65754;BME280;52488;47.502;18.940;2022-11-20T04:10:16;97651.41;;;0.85;92.53
65754;BME280;52488;47.502;18.940;2022-11-20T04:11:25;97650.69;;;0.85;92.82
65754;BME280;52488;47.502;18.940;2022-11-20T04:12:32;97648.00;;;0.85;92.90
65754;BME280;52488;47.502;18.940;2022-11-20T04:13:34;97650.69;;;0.85;93.21
65754;BME280;52488;47.502;18.940;2022-11-20T04:14:37;97644.56;;;0.84;93.38
65754;BME280;52488;47.502;18.940;2022-11-20T04:15:40;97642.78;;;0.87;93.47
65754;BME280;52488;47.502;18.940;2022-11-20T04:16:43;97637.38;;;0.87;93.56
65754;BME280;52488;47.502;18.940;2022-11-20T04:17:46;97629.66;;;0.91;93.52
65754;BME280;52488;47.502;18.940;2022-11-20T04:18:57;97625.56;;;0.97;93.15
65754;BME280;52488;47.502;18.940;2022-11-20T04:20:00;97625.44;;;1.03;92.69
65754;BME280;52488;47.502;18.940;2022-11-20T04:21:04;97626.47;;;1.00;92.10
65754;BME280;52488;47.502;18.940;2022-11-20T04:22:07;97616.19;;;0.98;91.91
65754;BME280;52488;47.502;18.940;2022-11-20T04:23:10;97612.56;;;0.96;91.60
65754;BME280;52488;47.502;18.940;2022-11-20T04:24:13;97612.16;;;0.92;91.50
65754;BME280;52488;47.502;18.940;2022-11-20T04:25:16;97617.41;;;0.90;91.39
65754;BME280;52488;47.502;18.940;2022-11-20T04:26:20;97611.41;;;0.84;91.44
65754;BME280;52488;47.502;18.940;2022-11-20T04:27:23;97609.53;;;0.78;91.74
65754;BME280;52488;47.502;18.940;2022-11-20T04:28:30;97598.59;;;0.84;91.52
65754;BME280;52488;47.502;18.940;2022-11-20T04:29:33;97610.25;;;0.79;91.14
65754;BME280;52488;47.502;18.940;2022-11-20T04:30:35;97608.06;;;0.77;91.16
65754;BME280;52488;47.502;18.940;2022-11-20T04:31:38;97616.94;;;0.78;91.40
65754;BME280;52488;47.502;18.940;2022-11-20T04:32:41;97620.00;;;0.82;91.54
65754;BME280;52488;47.502;18.940;2022-11-20T04:33:44;97608.69;;;0.84;91.58
65754;BME280;52488;47.502;18.940;2022-11-20T04:34:47;97606.72;;;0.84;91.80
65754;BME280;52488;47.502;18.940;2022-11-20T04:35:49;97608.69;;;0.84;92.09
65754;BME280;52488;47.502;18.940;2022-11-20T04:36:56;97611.59;;;0.86;92.17
65754;BME280;52488;47.502;18.940;2022-11-20T04:37:59;97611.78;;;0.88;92.23
65754;BME280;52488;47.502;18.940;2022-11-20T04:39:04;97618.84;;;0.91;92.36
65754;BME280;52488;47.502;18.940;2022-11-20T04:40:08;97618.31;;;0.92;92.48
65754;BME280;52488;47.502;18.940;2022-11-20T04:41:19;97611.62;;;0.93;92.47
65754;BME280;52488;47.502;18.940;2022-11-20T04:42:21;97610.91;;;0.93;92.28
65754;BME280;52488;47.502;18.940;2022-11-20T04:43:33;97621.00;;;0.92;92.10
65754;BME280;52488;47.502;18.940;2022-11-20T04:44:36;97613.63;;;0.93;92.02
65754;BME280;52488;47.502;18.940;2022-11-20T04:45:38;97613.63;;;0.93;92.17
65754;BME280;52488;47.502;18.940;2022-11-20T04:46:44;97609.47;;;0.92;92.29
65754;BME280;52488;47.502;18.940;2022-11-20T04:47:48;97600.81;;;0.93;92.20
65754;BME280;52488;47.502;18.940;2022-11-20T04:48:50;97599.78;;;0.96;92.01
65754;BME280;52488;47.502;18.940;2022-11-20T04:49:53;97605.50;;;0.93;91.82
65754;BME280;52488;47.502;18.940;2022-11-20T04:50:56;97598.47;;;0.90;91.76
65754;BME280;52488;47.502;18.940;2022-11-20T04:52:01;97599.69;;;0.89;91.79
65754;BME280;52488;47.502;18.940;2022-11-20T04:53:03;97600.22;;;0.87;91.92
65754;BME280;52488;47.502;18.940;2022-11-20T04:54:06;97596.12;;;0.94;91.99
65754;BME280;52488;47.502;18.940;2022-11-20T04:55:11;97594.91;;;0.95;92.07
65754;BME280;52488;47.502;18.940;2022-11-20T04:56:14;97595.41;;;0.93;92.31
65754;BME280;52488;47.502;18.940;2022-11-20T04:57:19;97589.09;;;0.91;92.53
65754;BME280;52488;47.502;18.940;2022-11-20T04:58:22;97593.44;;;0.94;92.60
65754;BME280;52488;47.502;18.940;2022-11-20T04:59:26;97584.09;;;0.95;92.57
65754;BME280;52488;47.502;18.940;2022-11-20T05:00:29;97587.28;;;0.93;92.78
65754;BME280;52488;47.502;18.940;2022-11-20T05:01:31;97583.16;;;0.92;92.99
65754;BME280;52488;47.502;18.940;2022-11-20T05:02:34;97590.94;;;0.96;93.01
65754;BME280;52488;47.502;18.940;2022-11-20T05:03:38;97595.09;;;0.97;92.98
65754;BME280;52488;47.502;18.940;2022-11-20T05:04:43;97596.34;;;0.96;92.98
65754;BME280;52488;47.502;18.940;2022-11-20T05:05:46;97595.81;;;0.97;93.10
65754;BME280;52488;47.502;18.940;2022-11-20T05:06:49;97599.97;;;0.98;93.33
65754;BME280;52488;47.502;18.940;2022-11-20T05:07:57;97608.06;;;0.98;93.59
65754;BME280;52488;47.502;18.940;2022-11-20T05:09:00;97606.81;;;0.99;93.69
65754;BME280;52488;47.502;18.940;2022-11-20T05:10:03;97613.16;;;1.02;93.77
65754;BME280;52488;47.502;18.940;2022-11-20T05:11:11;97614.59;;;1.03;93.60
65754;BME280;52488;47.502;18.940;2022-11-20T05:12:15;97611.72;;;1.01;93.77
65754;BME280;52488;47.502;18.940;2022-11-20T05:13:17;97611.00;;;1.00;93.80
65754;BME280;52488;47.502;18.940;2022-11-20T05:14:20;97609.72;;;1.01;93.78
65754;BME280;52488;47.502;18.940;2022-11-20T05:15:22;97609.00;;;1.01;93.80
65754;BME280;52488;47.502;18.940;2022-11-20T05:16:26;97611.56;;;1.07;93.57
65754;BME280;52488;47.502;18.940;2022-11-20T05:17:30;97598.56;;;1.05;93.26
65754;BME280;52488;47.502;18.940;2022-11-20T05:18:34;97595.66;;;1.03;93.16
65754;BME280;52488;47.502;18.940;2022-11-20T05:19:37;97595.28;;;0.99;93.17
65754;BME280;52488;47.502;18.940;2022-11-20T05:20:39;97597.12;;;1.04;93.25
65754;BME280;52488;47.502;18.940;2022-11-20T05:21:42;97602.88;;;1.00;93.24
65754;BME280;52488;47.502;18.940;2022-11-20T05:22:45;97600.69;;;0.99;93.41
65754;BME280;52488;47.502;18.940;2022-11-20T05:23:48;97593.28;;;0.99;93.55
65754;BME280;52488;47.502;18.940;2022-11-20T05:24:51;97600.91;;;1.01;93.45
65754;BME280;52488;47.502;18.940;2022-11-20T05:25:54;97599.63;;;1.02;93.40
65754;BME280;52488;47.502;18.940;2022-11-20T05:27:01;97606.31;;;1.01;93.63
65754;BME280;52488;47.502;18.940;2022-11-20T05:28:03;97601.41;;;0.99;93.84
65754;BME280;52488;47.502;18.940;2022-11-20T05:29:06;97598.91;;;1.01;93.81
65754;BME280;52488;47.502;18.940;2022-11-20T05:30:09;97592.78;;;1.01;93.65
65754;BME280;52488;47.502;18.940;2022-11-20T05:31:14;97579.75;;;0.99;93.52
65754;BME280;52488;47.502;18.940;2022-11-20T05:32:20;97582.69;;;1.01;93.58
65754;BME280;52488;47.502;18.940;2022-11-20T05:33:23;97576.06;;;1.10;93.53
65754;BME280;52488;47.502;18.940;2022-11-20T05:34:26;97579.84;;;1.07;93.39
65754;BME280;52488;47.502;18.940;2022-11-20T05:35:29;97577.47;;;1.03;93.43
65754;BME280;52488;47.502;18.940;2022-11-20T05:36:32;97577.31;;;1.09;93.45
65754;BME280;52488;47.502;18.940;2022-11-20T05:37:35;97574.63;;;1.09;93.32
65754;BME280;52488;47.502;18.940;2022-11-20T05:38:38;97582.19;;;1.11;93.31
65754;BME280;52488;47.502;18.940;2022-11-20T05:39:40;97583.44;;;1.10;93.09
65754;BME280;52488;47.502;18.940;2022-11-20T05:40:43;97597.50;;;1.08;92.95
65754;BME280;52488;47.502;18.940;2022-11-20T05:41:46;97588.12;;;1.09;92.94
65754;BME280;52488;47.502;18.940;2022-11-20T05:42:48;97596.78;;;1.08;93.05
65754;BME280;52488;47.502;18.940;2022-11-20T05:43:52;97589.22;;;1.06;93.14
65754;BME280;52488;47.502;18.940;2022-11-20T05:44:54;97589.22;;;1.06;93.26
65754;BME280;52488;47.502;18.940;2022-11-20T05:45:58;97589.22;;;1.06;93.37
65754;BME280;52488;47.502;18.940;2022-11-20T05:47:00;97596.78;;;1.08;93.51
65754;BME280;52488;47.502;18.940;2022-11-20T05:48:03;97592.50;;;1.12;93.28
65754;BME280;52488;47.502;18.940;2022-11-20T05:49:06;97598.97;;;1.09;93.08
65754;BME280;52488;47.502;18.940;2022-11-20T05:50:09;97593.37;;;1.07;93.23